createdAt,value
2019-06-01T00:00:16.512Z,0.00
2019-06-01T00:01:16.455Z,0.00
2019-06-01T00:02:16.454Z,0.00
2019-06-01T00:03:16.435Z,0.00
2019-06-01T00:04:16.429Z,0.00
2019-06-01T00:05:16.439Z,0.00
2019-06-01T00:06:16.398Z,0.00
2019-06-01T00:07:16.389Z,0.00
2019-06-01T00:08:16.413Z,0.00
2019-06-01T00:09:16.391Z,0.00
2019-06-01T00:10:16.402Z,0.00
2019-06-01T00:11:16.341Z,0.00
2019-06-01T00:12:16.332Z,0.00
2019-06-01T00:13:16.331Z,0.00
2019-06-01T00:14:16.307Z,0.00
2019-06-01T00:15:16.364Z,0.00
2019-06-01T00:16:16.291Z,0.00
2019-06-01T00:17:16.279Z,0.00
2019-06-01T00:18:16.265Z,0.00
2019-06-01T00:19:16.264Z,0.00
2019-06-01T00:20:16.265Z,0.00
2019-06-01T00:21:16.253Z,0.00
2019-06-01T00:22:16.239Z,0.00
2019-06-01T00:23:16.224Z,0.00
2019-06-01T00:24:16.211Z,0.00
2019-06-01T00:25:16.204Z,0.00
2019-06-01T00:26:16.185Z,0.00
2019-06-01T00:27:16.172Z,0.00
2019-06-01T00:28:16.158Z,0.00
2019-06-01T00:29:16.186Z,0.00
2019-06-01T00:30:26.737Z,0.00
2019-06-01T00:31:17.129Z,0.00
2019-06-01T00:32:16.110Z,0.00
2019-06-01T00:33:16.098Z,0.00
2019-06-01T00:34:16.091Z,0.00
2019-06-01T00:35:16.119Z,0.00
2019-06-01T00:36:16.124Z,0.00
2019-06-01T00:37:16.081Z,0.00
2019-06-01T00:38:16.064Z,0.00
2019-06-01T00:39:16.047Z,0.00
2019-06-01T00:40:16.046Z,0.00
2019-06-01T00:41:16.047Z,0.00
2019-06-01T00:42:16.022Z,0.00
2019-06-01T00:43:15.997Z,0.00
2019-06-01T00:44:15.998Z,0.00
2019-06-01T00:45:16.034Z,0.00
2019-06-01T00:46:15.985Z,0.00
2019-06-01T00:47:15.980Z,0.00
2019-06-01T00:48:15.970Z,0.00
2019-06-01T00:49:15.938Z,0.00
2019-06-01T00:50:15.941Z,0.00
2019-06-01T00:51:15.934Z,0.00
2019-06-01T00:52:15.901Z,0.00
2019-06-01T00:53:15.891Z,0.00
2019-06-01T00:54:15.870Z,0.00
2019-06-01T00:55:15.907Z,0.00
2019-06-01T00:56:15.858Z,0.00
2019-06-01T00:57:15.843Z,0.00
2019-06-01T00:58:15.836Z,0.00
2019-06-01T00:59:15.821Z,0.00
2019-06-01T01:00:15.834Z,0.00
2019-06-01T01:01:15.790Z,0.00
2019-06-01T01:02:15.780Z,0.00
2019-06-01T01:03:15.782Z,0.00
2019-06-01T01:04:15.758Z,0.00
2019-06-01T01:05:15.769Z,0.00
2019-06-01T01:06:15.745Z,0.00
2019-06-01T01:07:15.762Z,0.00
2019-06-01T01:08:15.716Z,0.00
2019-06-01T01:09:15.696Z,0.00
2019-06-01T01:10:15.725Z,0.00
2019-06-01T01:11:15.690Z,0.00
2019-06-01T01:12:15.673Z,0.00
2019-06-01T01:13:15.664Z,0.00
2019-06-01T01:14:15.661Z,0.00
2019-06-01T01:15:15.686Z,0.00
2019-06-01T01:16:15.642Z,0.00
2019-06-01T01:17:15.613Z,0.00
2019-06-01T01:18:15.607Z,0.00
2019-06-01T01:19:15.594Z,0.00
2019-06-01T01:20:15.613Z,0.00
2019-06-01T01:21:15.575Z,0.00
2019-06-01T01:22:15.606Z,0.00
2019-06-01T01:23:15.542Z,0.00
2019-06-01T01:24:15.535Z,0.00
2019-06-01T01:25:15.560Z,0.00
2019-06-01T01:26:15.508Z,0.00
2019-06-01T01:27:15.502Z,0.00
2019-06-01T01:28:15.508Z,0.00
2019-06-01T01:29:15.488Z,0.00
2019-06-01T01:30:15.484Z,0.00
2019-06-01T01:31:15.452Z,0.00
2019-06-01T01:32:15.439Z,0.00
2019-06-01T01:33:15.444Z,0.00
2019-06-01T01:34:15.436Z,0.00
2019-06-01T01:35:15.464Z,0.00
2019-06-01T01:36:15.406Z,0.00
2019-06-01T01:37:15.389Z,0.00
2019-06-01T01:38:15.379Z,0.00
2019-06-01T01:39:15.363Z,0.00
2019-06-01T01:40:15.396Z,0.00
2019-06-01T01:41:15.357Z,0.00
2019-06-01T01:42:15.332Z,0.00
2019-06-01T01:43:15.336Z,0.00
2019-06-01T01:44:15.322Z,0.00
2019-06-01T01:45:15.325Z,0.00
2019-06-01T01:46:15.296Z,0.00
2019-06-01T01:47:15.281Z,0.00
2019-06-01T01:48:15.273Z,0.00
2019-06-01T01:49:15.275Z,0.00
2019-06-01T01:50:15.284Z,0.00
2019-06-01T01:51:15.242Z,0.00
2019-06-01T01:52:15.230Z,0.00
2019-06-01T01:53:15.220Z,0.00
2019-06-01T01:54:15.226Z,0.00
2019-06-01T01:55:15.195Z,0.00
2019-06-01T01:56:15.201Z,0.00
2019-06-01T01:57:15.165Z,0.00
2019-06-01T01:58:15.160Z,0.00
2019-06-01T01:59:15.142Z,0.00
2019-06-01T02:00:15.170Z,0.00
2019-06-01T02:01:22.334Z,0.00
2019-06-01T02:02:16.107Z,0.00
2019-06-01T02:03:15.102Z,4.00
2019-06-01T02:04:15.096Z,4.00
2019-06-01T02:05:15.105Z,0.00
2019-06-01T02:06:15.121Z,0.00
2019-06-01T02:07:15.055Z,4.00
2019-06-01T02:08:15.049Z,4.00
2019-06-01T02:09:15.045Z,4.00
2019-06-01T02:10:15.029Z,4.00
2019-06-01T02:11:15.038Z,4.00
2019-06-01T02:12:15.050Z,8.00
2019-06-01T02:13:15.000Z,4.00
2019-06-01T02:14:14.985Z,8.00
2019-06-01T02:15:14.978Z,4.00
2019-06-01T02:16:14.975Z,8.00
2019-06-01T02:17:14.951Z,8.00
2019-06-01T02:18:14.962Z,8.00
2019-06-01T02:19:14.935Z,8.00
2019-06-01T02:20:14.931Z,12.00
2019-06-01T02:21:14.949Z,16.00
2019-06-01T02:22:14.894Z,16.00
2019-06-01T02:23:14.914Z,16.00
2019-06-01T02:24:14.886Z,24.00
2019-06-01T02:25:14.892Z,24.00
2019-06-01T02:26:14.907Z,28.00
2019-06-01T02:27:14.856Z,28.00
2019-06-01T02:28:14.842Z,32.00
2019-06-01T02:29:14.834Z,36.00
2019-06-01T02:30:14.815Z,44.00
2019-06-01T02:31:14.850Z,52.00
2019-06-01T02:32:14.807Z,56.00
2019-06-01T02:33:14.817Z,60.00
2019-06-01T02:34:14.772Z,68.00
2019-06-01T02:35:14.803Z,76.00
2019-06-01T02:36:14.793Z,88.00
2019-06-01T02:37:14.741Z,96.00
2019-06-01T02:38:14.745Z,108.00
2019-06-01T02:39:14.742Z,120.00
2019-06-01T02:40:14.715Z,128.00
2019-06-01T02:41:14.762Z,140.00
2019-06-01T02:42:14.707Z,156.00
2019-06-01T02:43:14.682Z,172.00
2019-06-01T02:44:14.674Z,180.00
2019-06-01T02:45:14.669Z,196.00
2019-06-01T02:46:14.683Z,208.00
2019-06-01T02:47:14.641Z,220.00
2019-06-01T02:48:14.644Z,240.00
2019-06-01T02:49:14.621Z,252.00
2019-06-01T02:50:14.615Z,268.00
2019-06-01T02:51:14.596Z,284.00
2019-06-01T02:52:14.608Z,300.00
2019-06-01T02:53:14.575Z,320.00
2019-06-01T02:54:14.573Z,340.00
2019-06-01T02:55:14.546Z,356.00
2019-06-01T02:56:14.543Z,376.00
2019-06-01T02:57:14.579Z,400.00
2019-06-01T02:58:14.576Z,420.00
2019-06-01T02:59:14.515Z,448.00
2019-06-01T03:00:14.504Z,472.00
2019-06-01T03:01:14.498Z,496.00
2019-06-01T03:02:15.143Z,524.00
2019-06-01T03:03:14.502Z,552.00
2019-06-01T03:04:14.476Z,580.00
2019-06-01T03:05:14.448Z,608.00
2019-06-01T03:06:14.436Z,636.00
2019-06-01T03:07:14.425Z,664.00
2019-06-01T03:08:14.438Z,692.00
2019-06-01T03:09:14.418Z,720.00
2019-06-01T03:10:14.391Z,752.00
2019-06-01T03:11:14.374Z,780.00
2019-06-01T03:12:14.374Z,816.00
2019-06-01T03:13:14.389Z,856.00
2019-06-01T03:14:14.358Z,896.00
2019-06-01T03:15:14.342Z,932.00
2019-06-01T03:16:14.329Z,972.00
2019-06-01T03:17:14.339Z,1016.00
2019-06-01T03:18:14.303Z,1056.00
2019-06-01T03:19:14.315Z,1096.00
2019-06-01T03:20:14.286Z,1140.00
2019-06-01T03:21:14.285Z,1184.00
2019-06-01T03:22:14.274Z,1232.00
2019-06-01T03:23:14.253Z,1276.00
2019-06-01T03:24:14.262Z,1324.00
2019-06-01T03:25:14.227Z,1368.00
2019-06-01T03:26:14.223Z,1416.00
2019-06-01T03:27:14.204Z,1464.00
2019-06-01T03:28:14.206Z,1508.00
2019-06-01T03:29:14.214Z,1552.00
2019-06-01T03:30:15.566Z,1596.00
2019-06-01T03:31:14.182Z,1640.00
2019-06-01T03:32:34.408Z,1684.00
2019-06-01T03:33:15.164Z,1724.00
2019-06-01T03:34:14.242Z,1768.00
2019-06-01T03:35:14.122Z,1816.00
2019-06-01T03:36:14.136Z,1864.00
2019-06-01T03:37:14.107Z,1916.00
2019-06-01T03:38:14.091Z,1972.00
2019-06-01T03:39:14.120Z,2028.00
2019-06-01T03:40:23.460Z,2080.00
2019-06-01T03:41:15.061Z,2132.00
2019-06-01T03:42:14.095Z,2180.00
2019-06-01T03:43:14.033Z,2220.00
2019-06-01T03:44:14.052Z,2268.00
2019-06-01T03:45:14.010Z,2308.00
2019-06-01T03:46:14.013Z,2352.00
2019-06-01T03:47:13.997Z,2396.00
2019-06-01T03:48:14.013Z,2440.00
2019-06-01T03:49:13.985Z,2484.00
2019-06-01T03:50:13.966Z,2544.00
2019-06-01T03:51:13.943Z,2604.00
2019-06-01T03:52:13.941Z,2664.00
2019-06-01T03:53:13.926Z,2728.00
2019-06-01T03:54:13.930Z,2796.00
2019-06-01T03:55:13.909Z,2864.00
2019-06-01T03:56:13.922Z,2916.00
2019-06-01T03:57:13.907Z,2992.00
2019-06-01T03:58:13.881Z,3068.00
2019-06-01T03:59:13.926Z,3120.00
2019-06-01T04:00:13.851Z,3160.00
2019-06-01T04:01:13.852Z,3192.00
2019-06-01T04:02:13.847Z,3244.00
2019-06-01T04:03:13.828Z,3304.00
2019-06-01T04:04:13.830Z,3332.00
2019-06-01T04:05:13.796Z,3376.00
2019-06-01T04:06:13.793Z,3420.00
2019-06-01T04:07:13.793Z,3436.00
2019-06-01T04:08:13.763Z,3432.00
2019-06-01T04:09:13.783Z,3524.00
2019-06-01T04:10:13.752Z,3600.00
2019-06-01T04:11:13.732Z,3664.00
2019-06-01T04:12:13.727Z,3728.00
2019-06-01T04:13:13.728Z,3772.00
2019-06-01T04:14:13.720Z,3832.00
2019-06-01T04:15:16.696Z,3900.00
2019-06-01T04:16:13.668Z,3944.00
2019-06-01T04:17:13.655Z,3976.00
2019-06-01T04:18:14.076Z,3992.00
2019-06-01T04:19:13.699Z,3988.00
2019-06-01T04:20:13.653Z,4032.00
2019-06-01T04:21:13.625Z,4088.00
2019-06-01T04:22:13.614Z,4168.00
2019-06-01T04:23:13.600Z,4232.00
2019-06-01T04:24:13.587Z,4288.00
2019-06-01T04:25:13.698Z,4348.00
2019-06-01T04:26:13.601Z,4408.00
2019-06-01T04:27:13.549Z,4500.00
2019-06-01T04:28:13.544Z,4600.00
2019-06-01T04:29:13.529Z,4668.00
2019-06-01T04:30:13.789Z,4732.00
2019-06-01T04:31:13.515Z,4784.00
2019-06-01T04:32:13.522Z,4872.00
2019-06-01T04:33:13.490Z,5008.00
2019-06-01T04:34:13.482Z,5208.00
2019-06-01T04:35:13.483Z,5400.00
2019-06-01T04:36:13.456Z,5416.00
2019-06-01T04:37:13.446Z,5656.00
2019-06-01T04:38:13.505Z,6060.00
2019-06-01T04:39:13.846Z,6360.00
2019-06-01T04:40:13.717Z,7092.00
2019-06-01T04:41:14.125Z,7740.00
2019-06-01T04:42:13.904Z,8024.00
2019-06-01T04:43:14.168Z,8204.00
2019-06-01T04:44:14.357Z,8368.00
2019-06-01T04:45:14.396Z,8396.00
2019-06-01T04:46:14.462Z,8520.00
2019-06-01T04:47:14.487Z,8744.00
2019-06-01T04:48:14.586Z,8980.00
2019-06-01T04:49:13.456Z,9100.00
2019-06-01T04:50:13.324Z,9336.00
2019-06-01T04:51:13.523Z,9508.00
2019-06-01T04:52:13.585Z,9528.00
2019-06-01T04:53:13.522Z,10032.00
2019-06-01T04:54:14.407Z,10360.00
2019-06-01T04:55:13.284Z,10452.00
2019-06-01T04:56:13.242Z,10732.00
2019-06-01T04:57:13.276Z,11076.00
2019-06-01T04:58:13.237Z,11412.00
2019-06-01T04:59:13.214Z,11596.00
2019-06-01T05:00:25.705Z,11904.00
2019-06-01T05:01:15.136Z,12020.00
2019-06-01T05:02:13.236Z,12344.00
2019-06-01T05:03:13.559Z,12596.00
2019-06-01T05:04:13.359Z,12644.00
2019-06-01T05:05:13.429Z,12728.00
2019-06-01T05:06:13.467Z,12316.00
2019-06-01T05:07:13.540Z,12760.00
2019-06-01T05:08:13.937Z,14164.00
2019-06-01T05:09:13.400Z,14440.00
2019-06-01T05:10:14.319Z,15072.00
2019-06-01T05:11:13.559Z,15296.00
2019-06-01T05:12:13.627Z,15968.00
2019-06-01T05:13:13.588Z,16096.00
2019-06-01T05:14:13.772Z,16704.00
2019-06-01T05:15:13.977Z,16768.00
2019-06-01T05:16:14.786Z,17184.00
2019-06-01T05:17:14.919Z,17792.00
2019-06-01T05:18:14.170Z,18688.00
2019-06-01T05:19:14.083Z,18624.00
2019-06-01T05:20:12.984Z,20736.00
2019-06-01T05:21:13.086Z,20832.00
2019-06-01T05:22:12.949Z,21120.00
2019-06-01T05:23:12.950Z,24896.00
2019-06-01T05:24:12.930Z,24448.00
2019-06-01T05:25:13.624Z,23008.00
2019-06-01T05:26:13.255Z,22976.00
2019-06-01T05:27:13.134Z,18720.00
2019-06-01T05:28:13.299Z,18752.00
2019-06-01T05:29:13.515Z,16928.00
2019-06-01T05:30:13.698Z,16224.00
2019-06-01T05:31:16.724Z,16736.00
2019-06-01T05:32:14.641Z,16960.00
2019-06-01T05:33:31.068Z,16608.00
2019-06-01T05:34:13.888Z,15936.00
2019-06-01T05:35:13.779Z,14908.00
2019-06-01T05:36:14.153Z,14344.00
2019-06-01T05:37:14.163Z,13820.00
2019-06-01T05:38:12.782Z,13312.00
2019-06-01T05:39:12.776Z,13168.00
2019-06-01T05:40:12.768Z,13276.00
2019-06-01T05:41:13.234Z,13272.00
2019-06-01T05:42:12.734Z,13112.00
2019-06-01T05:43:15.682Z,12656.00
2019-06-01T05:44:12.928Z,12324.00
2019-06-01T05:45:13.050Z,12220.00
2019-06-01T05:46:13.931Z,12424.00
2019-06-01T05:47:12.682Z,13052.00
2019-06-01T05:48:16.369Z,13724.00
2019-06-01T05:49:14.732Z,13768.00
2019-06-01T05:50:12.641Z,14080.00
2019-06-01T05:51:15.217Z,14084.00
2019-06-01T05:52:12.666Z,14184.00
2019-06-01T05:53:12.620Z,14352.00
2019-06-01T05:54:12.614Z,14192.00
2019-06-01T05:55:12.927Z,13992.00
2019-06-01T05:56:12.762Z,14256.00
2019-06-01T05:57:12.714Z,14884.00
2019-06-01T05:58:12.931Z,14928.00
2019-06-01T05:59:12.549Z,14880.00
2019-06-01T06:00:13.080Z,15312.00
2019-06-01T06:01:12.608Z,15628.00
2019-06-01T06:02:13.222Z,15376.00
2019-06-01T06:03:15.365Z,15184.00
2019-06-01T06:04:13.513Z,15280.00
2019-06-01T06:05:12.624Z,15372.00
2019-06-01T06:06:13.655Z,15872.00
2019-06-01T06:07:12.801Z,15980.00
2019-06-01T06:08:13.124Z,15584.00
2019-06-01T06:09:13.316Z,15200.00
2019-06-01T06:10:12.428Z,15012.00
2019-06-01T06:11:12.896Z,14720.00
2019-06-01T06:12:13.218Z,15172.00
2019-06-01T06:13:13.345Z,15828.00
2019-06-01T06:14:13.364Z,16320.00
2019-06-01T06:15:13.538Z,18208.00
2019-06-01T06:16:13.694Z,16896.00
2019-06-01T06:17:14.553Z,16448.00
2019-06-01T06:18:12.331Z,15848.00
2019-06-01T06:19:12.844Z,14608.00
2019-06-01T06:20:12.371Z,13504.00
2019-06-01T06:21:12.338Z,12152.00
2019-06-01T06:22:12.301Z,11404.00
2019-06-01T06:23:12.299Z,11560.00
2019-06-01T06:24:12.269Z,12296.00
2019-06-01T06:25:14.196Z,13200.00
2019-06-01T06:26:14.997Z,13720.00
2019-06-01T06:27:12.485Z,16224.00
2019-06-01T06:28:12.577Z,13392.00
2019-06-01T06:29:12.741Z,12140.00
2019-06-01T06:30:12.793Z,12080.00
2019-06-01T06:31:12.929Z,12832.00
2019-06-01T06:32:12.894Z,13844.00
2019-06-01T06:33:13.168Z,17312.00
2019-06-01T06:34:13.258Z,35488.00
2019-06-01T06:35:13.259Z,39488.00
2019-06-01T06:36:12.201Z,39744.00
2019-06-01T06:37:12.151Z,38400.00
2019-06-01T06:38:12.137Z,43776.00
2019-06-01T06:39:12.100Z,44704.00
2019-06-01T06:40:12.100Z,36800.00
2019-06-01T06:41:12.087Z,21216.00
2019-06-01T06:42:12.126Z,20320.00
2019-06-01T06:43:21.332Z,17152.00
2019-06-01T06:44:14.302Z,19424.00
2019-06-01T06:45:12.044Z,35808.00
2019-06-01T06:46:12.040Z,36832.00
2019-06-01T06:47:12.047Z,39520.00
2019-06-01T06:48:12.014Z,41152.00
2019-06-01T06:49:12.004Z,24160.00
2019-06-01T06:50:14.579Z,36256.00
2019-06-01T06:51:12.018Z,30272.00
2019-06-01T06:52:11.983Z,45504.00
2019-06-01T06:53:24.474Z,28544.00
2019-06-01T06:54:14.619Z,33600.00
2019-06-01T06:55:11.941Z,20288.00
2019-06-01T06:56:11.922Z,22112.00
2019-06-01T06:57:12.006Z,22144.00
2019-06-01T06:58:11.919Z,47328.00
2019-06-01T06:59:11.912Z,45568.00
2019-06-01T07:00:11.886Z,20736.00
2019-06-01T07:01:12.262Z,45504.00
2019-06-01T07:02:11.927Z,47360.00
2019-06-01T07:03:11.840Z,25696.00
2019-06-01T07:04:13.181Z,32800.00
2019-06-01T07:05:11.821Z,26688.00
2019-06-01T07:06:11.817Z,43488.00
2019-06-01T07:07:11.858Z,35424.00
2019-06-01T07:08:11.826Z,24896.00
2019-06-01T07:09:11.782Z,50240.00
2019-06-01T07:10:11.774Z,51744.00
2019-06-01T07:11:12.180Z,48448.00
2019-06-01T07:12:11.780Z,53536.00
2019-06-01T07:13:11.746Z,50432.00
2019-06-01T07:14:11.726Z,52864.00
2019-06-01T07:15:11.748Z,55392.00
2019-06-01T07:16:11.711Z,54400.00
2019-06-01T07:17:15.472Z,53024.00
2019-06-01T07:18:11.697Z,52832.00
2019-06-01T07:19:11.693Z,53120.00
2019-06-01T07:20:11.656Z,46816.00
2019-06-01T07:21:11.672Z,44800.00
2019-06-01T07:22:11.648Z,49632.00
2019-06-01T07:23:11.650Z,47840.00
2019-06-01T07:24:11.622Z,41248.00
2019-06-01T07:25:11.606Z,50400.00
2019-06-01T07:26:11.603Z,54080.00
2019-06-01T07:27:11.621Z,52896.00
2019-06-01T07:28:11.583Z,49632.00
2019-06-01T07:29:11.596Z,53280.00
2019-06-01T07:30:11.573Z,55680.00
2019-06-01T07:31:11.552Z,55040.00
2019-06-01T07:32:11.556Z,53920.00
2019-06-01T07:33:11.520Z,51840.00
2019-06-01T07:34:29.138Z,52384.00
2019-06-01T07:35:12.500Z,55328.00
2019-06-01T07:36:11.502Z,55072.00
2019-06-01T07:37:11.524Z,56096.00
2019-06-01T07:38:11.482Z,59712.00
2019-06-01T07:39:11.470Z,61664.00
2019-06-01T07:40:13.614Z,61184.00
2019-06-01T07:41:11.452Z,57856.00
2019-06-01T07:42:11.480Z,48256.00
2019-06-01T07:43:11.420Z,45664.00
2019-06-01T07:44:11.417Z,53312.00
2019-06-01T07:45:11.408Z,60992.00
2019-06-01T07:46:11.409Z,62464.00
2019-06-01T07:47:11.387Z,67264.00
2019-06-01T07:48:11.386Z,66272.00
2019-06-01T07:49:11.358Z,66208.00
2019-06-01T07:50:11.374Z,63008.00
2019-06-01T07:51:11.386Z,60000.00
2019-06-01T07:52:13.451Z,45984.00
2019-06-01T07:53:11.342Z,41184.00
2019-06-01T07:54:11.299Z,45472.00
2019-06-01T07:55:11.294Z,25440.00
2019-06-01T07:56:11.284Z,55328.00
2019-06-01T07:57:11.274Z,57056.00
2019-06-01T07:58:11.287Z,55104.00
2019-06-01T07:59:11.280Z,63552.00
2019-06-01T08:00:11.247Z,63584.00
2019-06-01T08:01:11.230Z,63648.00
2019-06-01T08:02:11.241Z,65792.00
2019-06-01T08:03:11.248Z,65664.00
2019-06-01T08:04:11.205Z,67680.00
2019-06-01T08:05:11.195Z,62528.00
2019-06-01T08:06:11.182Z,55648.00
2019-06-01T08:07:11.198Z,34688.00
2019-06-01T08:08:11.181Z,24096.00
2019-06-01T08:09:11.147Z,42752.00
2019-06-01T08:10:11.133Z,28448.00
2019-06-01T08:11:11.140Z,38272.00
2019-06-01T08:12:11.137Z,48576.00
2019-06-01T08:13:11.132Z,61376.00
2019-06-01T08:14:11.097Z,51232.00
2019-06-01T08:15:11.094Z,23328.00
2019-06-01T08:16:11.091Z,26528.00
2019-06-01T08:17:11.068Z,67616.00
2019-06-01T08:18:11.099Z,55808.00
2019-06-01T08:19:11.087Z,30080.00
2019-06-01T08:20:11.067Z,25248.00
2019-06-01T08:21:11.030Z,24032.00
2019-06-01T08:22:11.035Z,22592.00
2019-06-01T08:23:11.047Z,23104.00
2019-06-01T08:24:11.021Z,20352.00
2019-06-01T08:25:10.989Z,32832.00
2019-06-01T08:26:10.979Z,23840.00
2019-06-01T08:27:10.992Z,34720.00
2019-06-01T08:28:10.983Z,27136.00
2019-06-01T08:29:10.983Z,25568.00
2019-06-01T08:30:10.926Z,21408.00
2019-06-01T08:31:10.922Z,20960.00
2019-06-01T08:32:10.935Z,20256.00
2019-06-01T08:33:10.918Z,20256.00
2019-06-01T08:34:10.924Z,21792.00
2019-06-01T08:35:10.876Z,20352.00
2019-06-01T08:36:10.881Z,18656.00
2019-06-01T08:37:10.868Z,22464.00
2019-06-01T08:38:10.856Z,22848.00
2019-06-01T08:39:10.836Z,42848.00
2019-06-01T08:40:10.871Z,21408.00
2019-06-01T08:41:10.816Z,21312.00
2019-06-01T08:42:10.807Z,22656.00
2019-06-01T08:43:10.826Z,17760.00
2019-06-01T08:44:10.817Z,22720.00
2019-06-01T08:45:10.771Z,23968.00
2019-06-01T08:46:10.773Z,32960.00
2019-06-01T08:47:10.759Z,36480.00
2019-06-01T08:48:10.739Z,36064.00
2019-06-01T08:49:10.793Z,25280.00
2019-06-01T08:50:10.713Z,24800.00
2019-06-01T08:51:10.705Z,20096.00
2019-06-01T08:52:10.719Z,20256.00
2019-06-01T08:53:10.700Z,19968.00
2019-06-01T08:54:10.720Z,19360.00
2019-06-01T08:55:10.667Z,17728.00
2019-06-01T08:56:10.684Z,16048.00
2019-06-01T08:57:10.658Z,15592.00
2019-06-01T08:58:10.640Z,15808.00
2019-06-01T08:59:10.702Z,16148.00
2019-06-01T09:00:10.624Z,17280.00
2019-06-01T09:01:10.602Z,17356.00
2019-06-01T09:02:10.632Z,15192.00
2019-06-01T09:03:10.584Z,15468.00
2019-06-01T09:04:10.598Z,16928.00
2019-06-01T09:05:23.382Z,19040.00
2019-06-01T09:06:11.552Z,15412.00
2019-06-01T09:07:10.541Z,22304.00
2019-06-01T09:08:10.568Z,16648.00
2019-06-01T09:09:11.942Z,17132.00
2019-06-01T09:10:10.513Z,16032.00
2019-06-01T09:11:10.508Z,16032.00
2019-06-01T09:12:10.541Z,16256.00
2019-06-01T09:13:10.476Z,16392.00
2019-06-01T09:14:10.490Z,17984.00
2019-06-01T09:15:10.453Z,17096.00
2019-06-01T09:16:10.451Z,17304.00
2019-06-01T09:17:10.449Z,43168.00
2019-06-01T09:18:10.440Z,37760.00
2019-06-01T09:19:11.579Z,26784.00
2019-06-01T09:20:10.411Z,20992.00
2019-06-01T09:21:10.387Z,18912.00
2019-06-01T09:22:10.383Z,28608.00
2019-06-01T09:23:10.381Z,37120.00
2019-06-01T09:24:10.374Z,41376.00
2019-06-01T09:25:10.363Z,22400.00
2019-06-01T09:26:10.408Z,22016.00
2019-06-01T09:27:10.341Z,20544.00
2019-06-01T09:28:10.319Z,21600.00
2019-06-01T09:29:10.322Z,20800.00
2019-06-01T09:30:10.315Z,33984.00
2019-06-01T09:31:10.278Z,31552.00
2019-06-01T09:32:11.370Z,18880.00
2019-06-01T09:33:10.335Z,25024.00
2019-06-01T09:34:10.271Z,25088.00
2019-06-01T09:35:10.258Z,22112.00
2019-06-01T09:36:10.231Z,21632.00
2019-06-01T09:37:10.225Z,28768.00
2019-06-01T09:38:10.213Z,23200.00
2019-06-01T09:39:10.211Z,23776.00
2019-06-01T09:40:10.216Z,24064.00
2019-06-01T09:41:10.193Z,24096.00
2019-06-01T09:42:10.173Z,23488.00
2019-06-01T09:43:10.167Z,22336.00
2019-06-01T09:44:10.137Z,22752.00
2019-06-01T09:45:10.173Z,23072.00
2019-06-01T09:46:10.134Z,20544.00
2019-06-01T09:47:10.116Z,20416.00
2019-06-01T09:48:10.098Z,19520.00
2019-06-01T09:49:10.095Z,21312.00
2019-06-01T09:50:10.091Z,21664.00
2019-06-01T09:51:10.105Z,19296.00
2019-06-01T09:52:12.568Z,18560.00
2019-06-01T09:53:10.104Z,17696.00
2019-06-01T09:54:10.059Z,18880.00
2019-06-01T09:55:10.040Z,20480.00
2019-06-01T09:56:10.050Z,21152.00
2019-06-01T09:57:10.007Z,29984.00
2019-06-01T09:58:10.005Z,22784.00
2019-06-01T09:59:09.998Z,24608.00
2019-06-01T10:00:09.972Z,22912.00
2019-06-01T10:01:10.004Z,20864.00
2019-06-01T10:02:09.969Z,21472.00
2019-06-01T10:03:09.955Z,20672.00
2019-06-01T10:04:10.015Z,17428.00
2019-06-01T10:05:09.946Z,18592.00
2019-06-01T10:06:13.825Z,19072.00
2019-06-01T10:07:09.917Z,45792.00
2019-06-01T10:08:09.891Z,19456.00
2019-06-01T10:09:09.893Z,17324.00
2019-06-01T10:10:09.931Z,28000.00
2019-06-01T10:11:09.872Z,59264.00
2019-06-01T10:12:09.887Z,23488.00
2019-06-01T10:13:09.842Z,102848.00
2019-06-01T10:14:09.841Z,61216.00
2019-06-01T10:15:09.816Z,87968.00
2019-06-01T10:16:09.827Z,105088.00
2019-06-01T10:17:09.811Z,24256.00
2019-06-01T10:18:09.805Z,102560.00
2019-06-01T10:19:09.774Z,96640.00
2019-06-01T10:20:09.763Z,104000.00
2019-06-01T10:21:09.760Z,22880.00
2019-06-01T10:22:09.739Z,36384.00
2019-06-01T10:23:09.770Z,16704.00
2019-06-01T10:24:09.716Z,45248.00
2019-06-01T10:25:09.713Z,24640.00
2019-06-01T10:26:09.739Z,23904.00
2019-06-01T10:27:09.686Z,95424.00
2019-06-01T10:28:09.685Z,111488.00
2019-06-01T10:29:09.713Z,20384.00
2019-06-01T10:30:09.657Z,24288.00
2019-06-01T10:31:09.657Z,102400.00
2019-06-01T10:32:09.634Z,34720.00
2019-06-01T10:33:09.646Z,91648.00
2019-06-01T10:34:09.634Z,16248.00
2019-06-01T10:35:09.615Z,101248.00
2019-06-01T10:36:19.964Z,25184.00
2019-06-01T10:37:10.622Z,57824.00
2019-06-01T10:38:09.574Z,40032.00
2019-06-01T10:39:09.575Z,26112.00
2019-06-01T10:40:09.549Z,36672.00
2019-06-01T10:41:09.595Z,25504.00
2019-06-01T10:42:09.536Z,19232.00
2019-06-01T10:43:09.518Z,26848.00
2019-06-01T10:44:09.540Z,19392.00
2019-06-01T10:45:09.508Z,20992.00
2019-06-01T10:46:09.520Z,21184.00
2019-06-01T10:47:09.510Z,22144.00
2019-06-01T10:48:09.479Z,20768.00
2019-06-01T10:49:09.486Z,18112.00
2019-06-01T10:50:09.480Z,16368.00
2019-06-01T10:51:09.455Z,20928.00
2019-06-01T10:52:09.443Z,88864.00
2019-06-01T10:53:09.458Z,67200.00
2019-06-01T10:54:09.414Z,87616.00
2019-06-01T10:55:09.425Z,18808.00
2019-06-01T10:56:09.390Z,71328.00
2019-06-01T10:57:09.376Z,11712.00
2019-06-01T10:58:09.397Z,25824.00
2019-06-01T10:59:09.374Z,16192.00
2019-06-01T11:00:09.375Z,57088.00
2019-06-01T11:01:09.334Z,59424.00
2019-06-01T11:02:09.342Z,86496.00
2019-06-01T11:03:09.346Z,107136.00
2019-06-01T11:04:09.305Z,106144.00
2019-06-01T11:05:09.321Z,101376.00
2019-06-01T11:06:09.296Z,104416.00
2019-06-01T11:07:09.278Z,20288.00
2019-06-01T11:08:09.275Z,69344.00
2019-06-01T11:09:09.291Z,40000.00
2019-06-01T11:10:09.297Z,102336.00
2019-06-01T11:11:09.251Z,63680.00
2019-06-01T11:12:09.240Z,100544.00
2019-06-01T11:13:09.226Z,106176.00
2019-06-01T11:14:09.217Z,105344.00
2019-06-01T11:15:09.267Z,25312.00
2019-06-01T11:16:09.187Z,112288.00
2019-06-01T11:17:09.207Z,120064.00
2019-06-01T11:18:09.171Z,107680.00
2019-06-01T11:19:09.174Z,119360.00
2019-06-01T11:20:09.191Z,118464.00
2019-06-01T11:21:09.154Z,70784.00
2019-06-01T11:22:09.185Z,17300.00
2019-06-01T11:23:09.133Z,83136.00
2019-06-01T11:24:09.117Z,48192.00
2019-06-01T11:25:09.129Z,112800.00
2019-06-01T11:26:09.095Z,87104.00
2019-06-01T11:27:09.111Z,108576.00
2019-06-01T11:28:09.080Z,101824.00
2019-06-01T11:29:09.067Z,42080.00
2019-06-01T11:30:09.102Z,36608.00
2019-06-01T11:31:09.053Z,39456.00
2019-06-01T11:32:09.080Z,57024.00
2019-06-01T11:33:09.025Z,100544.00
2019-06-01T11:34:09.024Z,96928.00
2019-06-01T11:35:09.021Z,93952.00
2019-06-01T11:36:09.007Z,90112.00
2019-06-01T11:37:09.030Z,90912.00
2019-06-01T11:38:08.982Z,22784.00
2019-06-01T11:39:08.964Z,45888.00
2019-06-01T11:40:08.992Z,17600.00
2019-06-01T11:41:08.963Z,20320.00
2019-06-01T11:42:08.942Z,23616.00
2019-06-01T11:43:08.945Z,96160.00
2019-06-01T11:44:08.931Z,92288.00
2019-06-01T11:45:08.990Z,100224.00
2019-06-01T11:46:08.905Z,99968.00
2019-06-01T11:47:08.899Z,70624.00
2019-06-01T11:48:08.875Z,42688.00
2019-06-01T11:49:08.878Z,100736.00
2019-06-01T11:50:08.867Z,100096.00
2019-06-01T11:51:08.869Z,101632.00
2019-06-01T11:52:08.850Z,100576.00
2019-06-01T11:53:08.839Z,92480.00
2019-06-01T11:54:08.821Z,85728.00
2019-06-01T11:55:08.826Z,87392.00
2019-06-01T11:56:08.826Z,89408.00
2019-06-01T11:57:08.792Z,96384.00
2019-06-01T11:58:08.815Z,96992.00
2019-06-01T11:59:08.802Z,43296.00
2019-06-01T12:00:08.796Z,96576.00
2019-06-01T12:01:08.762Z,101376.00
2019-06-01T12:02:08.776Z,100608.00
2019-06-01T12:03:08.738Z,104384.00
2019-06-01T12:04:08.728Z,31744.00
2019-06-01T12:05:08.797Z,40000.00
2019-06-01T12:06:08.708Z,16228.00